Time;durP1;ratioP1;P1;durP2;ratioP2;P2;SDS_P1;SDS_P2;PMS_P1;PMS_P2;Temp;Humidity;BMP_temperature;BMP_pressure;BME280_temperature;BME280_humidity;BME280_pressure;Samples;Min_cycle;Max_cycle;Signal;HPM_P1;HPM_P2
2022/06/20 00:01:18;;;;;;;;;;;25.10;97.70;;;;;;5089494;28;19930;-80
2022/06/20 00:03:47;;;;;;;;;;;25.20;97.70;;;;;;5089836;28;19950;-79
2022/06/20 00:06:16;;;;;;;;;;;25.20;97.80;;;;;;5089915;28;19920;-79
2022/06/20 00:08:44;;;;;;;;;;;25.20;97.80;;;;;;5088996;28;19924;-79
2022/06/20 00:11:16;;;;;;;;;;;25.20;97.90;;;;;;5096663;28;19919;-79
2022/06/20 00:13:45;;;;;;;;;;;25.20;97.80;;;;;;5108989;28;19920;-79
2022/06/20 00:16:14;;;;;;;;;;;25.20;97.80;;;;;;5104204;28;19978;-80
2022/06/20 00:18:42;;;;;;;;;;;25.20;97.90;;;;;;5105714;28;19947;-79
2022/06/20 00:21:11;;;;;;;;;;;25.20;97.90;;;;;;5101028;28;19927;-79
2022/06/20 00:23:39;;;;;;;;;;;25.10;97.90;;;;;;5092418;28;20361;-80
2022/06/20 00:26:07;;;;;;;;;;;25.10;98.00;;;;;;5105492;28;19966;-79
2022/06/20 00:28:34;;;;;;;;;;;25.10;98.10;;;;;;5089224;28;19966;-79
2022/06/20 00:31:02;;;;;;;;;;;25.00;98.10;;;;;;5117036;28;19927;-79
2022/06/20 00:33:30;;;;;;;;;;;25.00;98.10;;;;;;5109731;28;20017;-79
2022/06/20 00:35:58;;;;;;;;;;;25.00;98.10;;;;;;5104650;28;19971;-80
2022/06/20 00:38:25;;;;;;;;;;;25.00;98.10;;;;;;5075538;28;19920;-79
2022/06/20 00:40:54;;;;;;;;;;;25.00;98.20;;;;;;5076401;28;19930;-80
2022/06/20 00:43:32;;;;;;;;;;;25.00;98.20;;;;;;5076118;28;19920;-79
2022/06/20 00:46:37;;;;;;;;;;;25.00;98.30;;;;;;5092204;28;19928;-80
2022/06/20 00:49:37;;;;;;;;;;;25.00;98.50;;;;;;5092778;28;20281;-80
2022/06/20 00:52:27;;;;;;;;;;;25.00;98.60;;;;;;5112334;28;20035;-80
2022/06/20 00:55:33;;;;;;;;;;;24.90;98.60;;;;;;5108354;28;19934;-80
2022/06/20 00:58:18;;;;;;;;;;;24.90;98.60;;;;;;5107344;28;19934;-80
2022/06/20 01:01:10;;;;;;;;;;;24.90;98.60;;;;;;5093229;28;19927;-80
2022/06/20 01:03:59;;;;;;;;;;;24.90;98.70;;;;;;5106647;28;19927;-79
2022/06/20 01:06:49;;;;;;;;;;;24.90;98.80;;;;;;5094841;28;20074;-80
2022/06/20 01:09:38;;;;;;;;;;;24.80;98.90;;;;;;5112745;28;19927;-79
2022/06/20 01:12:26;;;;;;;;;;;24.80;99.00;;;;;;5111835;28;19930;-80
2022/06/20 01:15:19;;;;;;;;;;;24.80;99.00;;;;;;5113806;28;19968;-79
2022/06/20 01:18:10;;;;;;;;;;;24.80;99.10;;;;;;5113287;28;20027;-79
2022/06/20 01:20:56;;;;;;;;;;;24.80;99.10;;;;;;5114635;28;19930;-80
2022/06/20 01:23:45;;;;;;;;;;;24.70;99.20;;;;;;5114972;28;19926;-80
2022/06/20 01:26:31;;;;;;;;;;;24.70;99.20;;;;;;5113996;28;19935;-80
2022/06/20 01:29:17;;;;;;;;;;;24.70;99.30;;;;;;5114525;28;20442;-80
2022/06/20 01:32:04;;;;;;;;;;;24.60;99.40;;;;;;5114321;28;20372;-80
2022/06/20 01:34:50;;;;;;;;;;;24.60;99.60;;;;;;5113414;28;19926;-79
2022/06/20 01:37:38;;;;;;;;;;;24.50;99.60;;;;;;5114912;28;19976;-80
2022/06/20 01:40:24;;;;;;;;;;;24.50;99.80;;;;;;5114127;28;20067;-81
2022/06/20 01:43:10;;;;;;;;;;;24.50;99.90;;;;;;5113640;28;20027;-80
2022/06/20 01:45:59;;;;;;;;;;;24.40;99.90;;;;;;5114269;28;19942;-80
2022/06/20 01:48:50;;;;;;;;;;;24.30;99.90;;;;;;5114985;28;19972;-80
2022/06/20 01:51:52;;;;;;;;;;;24.30;99.90;;;;;;5114002;28;19930;-81
2022/06/20 01:54:42;;;;;;;;;;;24.30;99.90;;;;;;5113427;28;19942;-80
2022/06/20 01:57:30;;;;;;;;;;;24.20;99.90;;;;;;5113188;28;20048;-80
2022/06/20 02:00:23;;;;;;;;;;;24.20;99.90;;;;;;5113396;28;19943;-80
2022/06/20 02:03:15;;;;;;;;;;;24.10;99.90;;;;;;5111052;28;19949;-80
2022/06/20 02:06:01;;;;;;;;;;;24.00;99.90;;;;;;5112614;28;19930;-80
2022/06/20 02:08:50;;;;;;;;;;;24.00;99.90;;;;;;5112650;28;19930;-80
2022/06/20 02:11:40;;;;;;;;;;;24.00;99.90;;;;;;5112794;28;19926;-80
2022/06/20 02:14:39;;;;;;;;;;;24.00;99.90;;;;;;5113819;28;19953;-80
2022/06/20 02:17:29;;;;;;;;;;;24.00;99.90;;;;;;5112706;28;19931;-81
2022/06/20 02:20:19;;;;;;;;;;;24.00;99.90;;;;;;5113797;28;20012;-80
2022/06/20 02:23:05;;;;;;;;;;;24.10;99.90;;;;;;5112086;28;19930;-80
2022/06/20 02:25:54;;;;;;;;;;;24.10;99.90;;;;;;5112022;28;20270;-81
2022/06/20 02:28:43;;;;;;;;;;;24.10;99.90;;;;;;5113185;28;20033;-80
2022/06/20 02:31:29;;;;;;;;;;;24.20;99.90;;;;;;5111416;28;19946;-80
2022/06/20 02:34:15;;;;;;;;;;;24.20;99.90;;;;;;5112537;28;20014;-80
2022/06/20 02:37:03;;;;;;;;;;;24.20;99.90;;;;;;5112255;28;20015;-79
2022/06/20 02:39:50;;;;;;;;;;;24.30;99.90;;;;;;5112399;28;19927;-80
2022/06/20 02:42:43;;;;;;;;;;;24.30;99.90;;;;;;5112139;28;19927;-80
2022/06/20 02:45:31;;;;;;;;;;;24.30;99.90;;;;;;5112427;28;19926;-80
2022/06/20 02:48:17;;;;;;;;;;;24.30;99.90;;;;;;5111742;28;20392;-80
2022/06/20 02:51:06;;;;;;;;;;;24.30;99.90;;;;;;5112766;28;19927;-80
2022/06/20 02:53:56;;;;;;;;;;;24.30;99.90;;;;;;5109486;28;19942;-80
2022/06/20 02:56:45;;;;;;;;;;;24.30;99.90;;;;;;5112481;28;19927;-79
2022/06/20 02:59:34;;;;;;;;;;;24.30;99.90;;;;;;5111305;28;20053;-80
2022/06/20 03:02:23;;;;;;;;;;;24.30;99.90;;;;;;5094495;28;19930;-79
2022/06/20 03:05:09;;;;;;;;;;;24.30;99.90;;;;;;5105990;28;20397;-80
2022/06/20 03:07:54;;;;;;;;;;;24.30;99.90;;;;;;5106014;28;19930;-80
2022/06/20 03:10:45;;;;;;;;;;;24.20;99.90;;;;;;5091683;28;20379;-80
2022/06/20 03:13:33;;;;;;;;;;;24.30;99.90;;;;;;5091009;28;20017;-79
2022/06/20 03:16:19;;;;;;;;;;;24.30;99.90;;;;;;5091599;28;19934;-80
2022/06/20 03:19:09;;;;;;;;;;;24.30;99.90;;;;;;5091218;28;19927;-80
2022/06/20 03:21:57;;;;;;;;;;;24.30;99.90;;;;;;5091812;28;19927;-80
2022/06/20 03:24:44;;;;;;;;;;;24.30;99.90;;;;;;5090784;28;19931;-80
2022/06/20 03:27:33;;;;;;;;;;;24.30;99.90;;;;;;5091048;28;20301;-80
2022/06/20 03:30:19;;;;;;;;;;;24.30;99.90;;;;;;5091058;28;19927;-80
2022/06/20 03:33:06;;;;;;;;;;;24.30;99.90;;;;;;5090975;28;20274;-81
2022/06/20 03:35:54;;;;;;;;;;;24.30;99.90;;;;;;5105602;28;19930;-80
2022/06/20 03:38:42;;;;;;;;;;;24.30;99.90;;;;;;5091172;28;19927;-81
2022/06/20 03:41:28;;;;;;;;;;;24.30;99.90;;;;;;5105099;28;19934;-81
2022/06/20 03:44:20;;;;;;;;;;;24.30;99.90;;;;;;5091358;28;19931;-81
2022/06/20 03:47:24;;;;;;;;;;;24.30;99.90;;;;;;5091173;28;19961;-81
2022/06/20 03:50:16;;;;;;;;;;;24.30;99.90;;;;;;5105398;28;20017;-80
2022/06/20 03:53:02;;;;;;;;;;;24.20;99.90;;;;;;5076441;28;20122;-80
2022/06/20 03:55:52;;;;;;;;;;;24.20;99.90;;;;;;5105998;28;20016;-80
2022/06/20 03:58:41;;;;;;;;;;;24.20;99.90;;;;;;5076913;28;19931;-79
2022/06/20 04:01:34;;;;;;;;;;;24.30;99.90;;;;;;5091464;28;19931;-79
2022/06/20 04:04:26;;;;;;;;;;;24.30;99.90;;;;;;5092242;28;19935;-80
2022/06/20 04:07:17;;;;;;;;;;;24.40;99.90;;;;;;5091257;28;19955;-78
2022/06/20 04:13:27;;;;;;;;;;;24.60;99.90;;;;;;5090135;28;19985;-79
2022/06/20 04:16:16;;;;;;;;;;;24.70;99.90;;;;;;5090501;28;20427;-79
2022/06/20 04:19:15;;;;;;;;;;;24.70;99.90;;;;;;5091492;28;19947;-80
2022/06/20 04:22:03;;;;;;;;;;;24.80;99.90;;;;;;5091239;28;20021;-80
2022/06/20 04:24:49;;;;;;;;;;;24.90;99.90;;;;;;5075964;28;19930;-80
2022/06/20 04:27:39;;;;;;;;;;;25.10;99.90;;;;;;5107869;28;19927;-80
2022/06/20 04:30:27;;;;;;;;;;;25.20;99.90;;;;;;5102215;28;20391;-80
2022/06/20 04:33:16;;;;;;;;;;;25.30;99.90;;;;;;5103151;28;19931;-80
2022/06/20 04:36:11;;;;;;;;;;;25.40;99.90;;;;;;5110481;28;19931;-80
2022/06/20 04:39:04;;;;;;;;;;;25.60;99.90;;;;;;5103967;28;19927;-80
2022/06/20 04:42:06;;;;;;;;;;;25.70;99.80;;;;;;5090516;28;19946;-80
2022/06/20 04:44:55;;;;;;;;;;;25.80;99.70;;;;;;5089999;28;19931;-81
2022/06/20 04:47:41;;;;;;;;;;;25.90;99.60;;;;;;5090777;28;19927;-80
2022/06/20 04:50:29;;;;;;;;;;;26.00;99.50;;;;;;5090933;28;19931;-80
2022/06/20 04:53:23;;;;;;;;;;;26.10;99.30;;;;;;5091101;28;19931;-80
2022/06/20 04:56:11;;;;;;;;;;;26.20;99.00;;;;;;5090126;28;19931;-80
2022/06/20 04:59:00;;;;;;;;;;;26.40;98.90;;;;;;5089450;28;19954;-80
2022/06/20 05:01:46;;;;;;;;;;;26.60;98.80;;;;;;5091354;28;19931;-79
2022/06/20 05:04:36;;;;;;;;;;;26.70;98.50;;;;;;5090124;28;20392;-79
2022/06/20 05:07:25;;;;;;;;;;;26.80;98.10;;;;;;5089587;28;20334;-79
2022/06/20 05:10:31;;;;;;;;;;;27.00;98.00;;;;;;5090195;28;19931;-78
2022/06/20 05:13:17;;;;;;;;;;;27.10;97.70;;;;;;5090550;28;20423;-80
2022/06/20 05:16:06;;;;;;;;;;;27.30;97.20;;;;;;5090392;28;19927;-79
2022/06/20 05:18:54;;;;;;;;;;;27.50;96.70;;;;;;5103367;28;19931;-80
2022/06/20 05:21:41;;;;;;;;;;;27.60;96.20;;;;;;5105070;27;19930;-80
2022/06/20 05:24:30;;;;;;;;;;;27.80;95.10;;;;;;5092829;28;19930;-80
2022/06/20 05:27:19;;;;;;;;;;;27.90;94.50;;;;;;5093817;28;20073;-79
2022/06/20 05:30:07;;;;;;;;;;;28.10;94.20;;;;;;5093237;28;19973;-80
2022/06/20 05:33:08;;;;;;;;;;;28.30;94.00;;;;;;5094125;28;20017;-80
2022/06/20 05:35:57;;;;;;;;;;;28.40;93.60;;;;;;5107605;28;19946;-80
2022/06/20 05:38:41;;;;;;;;;;;28.50;93.30;;;;;;5093004;28;19931;-80
2022/06/20 05:41:12;;;;;;;;;;;28.70;92.90;;;;;;5093305;28;19924;-79
2022/06/20 05:43:39;;;;;;;;;;;28.80;92.30;;;;;;5109572;28;19924;-80
2022/06/20 05:46:10;;;;;;;;;;;29.00;91.80;;;;;;5092548;28;19923;-79
2022/06/20 05:48:46;;;;;;;;;;;29.10;91.40;;;;;;5076260;28;19931;-80
2022/06/20 05:51:16;;;;;;;;;;;29.20;91.00;;;;;;5109702;28;19936;-79
2022/06/20 05:53:52;;;;;;;;;;;29.40;90.90;;;;;;5092214;28;19924;-79
2022/06/20 05:56:23;;;;;;;;;;;29.50;90.90;;;;;;5092923;28;19985;-79
2022/06/20 05:58:52;;;;;;;;;;;29.60;90.60;;;;;;5091873;28;19920;-79
2022/06/20 06:01:25;;;;;;;;;;;29.60;90.40;;;;;;5091993;28;20319;-79
2022/06/20 06:04:05;;;;;;;;;;;29.70;90.20;;;;;;5109434;28;20027;-78
2022/06/20 06:06:37;;;;;;;;;;;29.80;88.50;;;;;;5109035;28;20294;-80
2022/06/20 06:09:11;;;;;;;;;;;29.90;87.10;;;;;;5092963;28;20369;-79
2022/06/20 06:11:47;;;;;;;;;;;29.90;86.70;;;;;;5093672;28;19946;-80
2022/06/20 06:14:15;;;;;;;;;;;29.90;86.30;;;;;;5093282;28;19966;-79
2022/06/20 06:16:46;;;;;;;;;;;30.00;85.80;;;;;;5108761;28;20392;-81
2022/06/20 06:19:13;;;;;;;;;;;30.10;85.70;;;;;;5091722;28;20305;-79
2022/06/20 06:21:42;;;;;;;;;;;30.20;85.60;;;;;;5108570;28;19920;-79
2022/06/20 06:24:11;;;;;;;;;;;30.30;86.20;;;;;;5108854;28;19923;-79
2022/06/20 06:26:39;;;;;;;;;;;30.20;85.90;;;;;;5109011;28;19931;-80
2022/06/20 06:29:14;;;;;;;;;;;30.00;86.00;;;;;;5093015;28;19924;-80
2022/06/20 06:31:42;;;;;;;;;;;30.10;86.50;;;;;;5075762;28;19949;-79
2022/06/20 06:34:16;;;;;;;;;;;30.00;84.70;;;;;;5090988;28;19928;-80
2022/06/20 06:36:49;;;;;;;;;;;30.00;84.50;;;;;;5091869;28;19919;-80
2022/06/20 06:39:32;;;;;;;;;;;30.00;84.70;;;;;;5091636;28;19928;-80
2022/06/20 06:42:00;;;;;;;;;;;30.00;83.40;;;;;;5092591;28;19931;-79
2022/06/20 06:44:34;;;;;;;;;;;30.10;84.30;;;;;;5058422;28;19920;-79
2022/06/20 06:47:02;;;;;;;;;;;30.40;84.30;;;;;;5091021;28;20019;-79
2022/06/20 06:49:29;;;;;;;;;;;30.50;83.50;;;;;;5091514;28;19923;-79
2022/06/20 06:51:59;;;;;;;;;;;30.80;83.20;;;;;;5091208;28;19942;-80
2022/06/20 06:54:46;;;;;;;;;;;31.00;82.50;;;;;;5091437;28;19952;-80
2022/06/20 06:57:33;;;;;;;;;;;30.60;81.10;;;;;;5074310;28;19928;-80
2022/06/20 07:00:04;;;;;;;;;;;30.80;81.40;;;;;;5074368;28;20365;-79
2022/06/20 07:02:33;;;;;;;;;;;30.50;80.60;;;;;;5091722;28;20064;-79
2022/06/20 07:05:16;;;;;;;;;;;30.50;80.70;;;;;;5090687;28;19931;-79
2022/06/20 07:07:43;;;;;;;;;;;30.40;81.40;;;;;;5074296;28;19969;-80
2022/06/20 07:10:23;;;;;;;;;;;30.40;80.00;;;;;;5108071;28;19920;-79
2022/06/20 07:12:52;;;;;;;;;;;30.20;80.80;;;;;;5074166;28;20370;-79
2022/06/20 07:15:23;;;;;;;;;;;30.00;81.90;;;;;;5090679;28;20359;-79
2022/06/20 07:17:59;;;;;;;;;;;30.20;81.50;;;;;;5058799;28;19920;-80
2022/06/20 07:20:41;;;;;;;;;;;30.30;81.70;;;;;;5074037;28;19928;-79
2022/06/20 07:23:11;;;;;;;;;;;30.60;81.30;;;;;;5074478;28;19927;-78
2022/06/20 07:25:41;;;;;;;;;;;30.90;80.40;;;;;;5074272;28;19959;-79
2022/06/20 07:28:15;;;;;;;;;;;31.10;80.10;;;;;;5074017;28;19924;-79
2022/06/20 07:30:45;;;;;;;;;;;31.30;80.40;;;;;;5091731;28;19923;-80
2022/06/20 07:33:17;;;;;;;;;;;31.60;79.80;;;;;;5091320;28;19976;-79
2022/06/20 07:35:46;;;;;;;;;;;31.80;79.80;;;;;;5073604;28;19974;-79
2022/06/20 07:38:13;;;;;;;;;;;32.00;79.20;;;;;;5107035;28;19923;-79
2022/06/20 07:40:47;;;;;;;;;;;32.10;77.90;;;;;;5090646;28;20018;-79
2022/06/20 07:43:17;;;;;;;;;;;32.20;78.10;;;;;;5107255;28;19954;-78
2022/06/20 07:45:47;;;;;;;;;;;32.20;78.30;;;;;;5056205;28;19951;-79
2022/06/20 07:48:20;;;;;;;;;;;32.30;77.90;;;;;;5091377;28;19924;-78
2022/06/20 07:51:08;;;;;;;;;;;32.40;76.90;;;;;;5073030;28;19931;-78
2022/06/20 07:53:39;;;;;;;;;;;32.50;77.00;;;;;;5073752;28;19920;-78
2022/06/20 07:56:12;;;;;;;;;;;32.60;76.20;;;;;;5128207;27;19924;-81
2022/06/20 07:58:42;;;;;;;;;;;32.50;76.40;;;;;;5094093;28;19924;-80
2022/06/20 08:01:27;;;;;;;;;;;32.40;76.20;;;;;;5093696;28;20697;-79
2022/06/20 08:03:55;;;;;;;;;;;32.60;76.30;;;;;;5110510;28;19968;-80
2022/06/20 08:06:30;;;;;;;;;;;32.70;74.70;;;;;;5090823;28;20320;-80
2022/06/20 08:09:07;;;;;;;;;;;32.70;73.90;;;;;;5093330;28;19930;-80
2022/06/20 08:11:57;;;;;;;;;;;32.60;74.20;;;;;;5110613;28;20396;-79
2022/06/20 08:14:42;;;;;;;;;;;32.60;74.60;;;;;;5066794;28;19924;-79
2022/06/20 08:17:10;;;;;;;;;;;32.40;75.40;;;;;;5111530;28;19920;-79
2022/06/20 08:19:42;;;;;;;;;;;32.40;75.70;;;;;;5111337;28;19932;-78
2022/06/20 08:22:19;;;;;;;;;;;32.50;76.00;;;;;;5111323;28;20438;-79
2022/06/20 08:24:51;;;;;;;;;;;32.50;75.10;;;;;;5111215;28;20378;-80
2022/06/20 08:27:32;;;;;;;;;;;32.60;75.50;;;;;;5110143;28;19979;-80
2022/06/20 08:30:02;;;;;;;;;;;32.60;75.10;;;;;;5077162;28;19919;-80
2022/06/20 08:32:39;;;;;;;;;;;32.60;74.30;;;;;;5109961;28;20398;-80
2022/06/20 08:35:12;;;;;;;;;;;32.50;75.60;;;;;;5093038;28;20395;-79
2022/06/20 08:37:46;;;;;;;;;;;32.60;74.60;;;;;;5110004;28;19927;-80
2022/06/20 08:40:26;;;;;;;;;;;32.30;74.00;;;;;;5109902;28;20027;-80
2022/06/20 08:43:10;;;;;;;;;;;32.40;74.20;;;;;;5093199;28;19923;-80
2022/06/20 08:45:56;;;;;;;;;;;32.50;74.00;;;;;;5110465;28;20643;-80
2022/06/20 08:48:32;;;;;;;;;;;32.60;73.30;;;;;;5109778;28;19967;-80
2022/06/20 08:51:03;;;;;;;;;;;32.80;73.20;;;;;;5110084;28;20426;-80
2022/06/20 08:53:33;;;;;;;;;;;32.90;73.60;;;;;;5110146;28;19935;-80
2022/06/20 08:56:01;;;;;;;;;;;33.00;74.20;;;;;;5109408;28;19928;-80
2022/06/20 08:58:58;;;;;;;;;;;33.00;74.30;;;;;;5113476;28;19942;-78
2022/06/20 09:01:43;;;;;;;;;;;33.10;75.30;;;;;;5101975;28;19923;-79
2022/06/20 09:04:44;;;;;;;;;;;33.10;74.20;;;;;;5080472;28;20014;-79
2022/06/20 09:07:11;;;;;;;;;;;33.30;73.60;;;;;;5064117;28;20296;-79
2022/06/20 09:09:41;;;;;;;;;;;33.20;73.10;;;;;;5114717;28;20014;-79
2022/06/20 09:12:14;;;;;;;;;;;33.30;73.20;;;;;;5113655;28;19920;-79
2022/06/20 09:14:51;;;;;;;;;;;33.30;73.50;;;;;;5114588;28;19919;-79
2022/06/20 09:17:42;;;;;;;;;;;33.20;73.20;;;;;;5096653;28;19924;-79
2022/06/20 09:20:10;;;;;;;;;;;32.80;72.40;;;;;;5096439;28;20293;-79
2022/06/20 09:22:41;;;;;;;;;;;32.60;73.40;;;;;;5113449;28;20381;-79
2022/06/20 09:25:28;;;;;;;;;;;32.50;74.20;;;;;;5114466;28;19959;-80
2022/06/20 09:28:02;;;;;;;;;;;32.60;74.70;;;;;;5112327;28;19920;-77
2022/06/20 09:30:35;;;;;;;;;;;32.90;74.10;;;;;;5114229;28;19919;-79
2022/06/20 09:33:02;;;;;;;;;;;33.10;72.90;;;;;;5114513;28;19924;-79
2022/06/20 09:35:44;;;;;;;;;;;33.40;72.40;;;;;;5113378;28;19928;-80
2022/06/20 09:38:24;;;;;;;;;;;33.50;71.80;;;;;;5114138;28;20335;-79
2022/06/20 09:41:01;;;;;;;;;;;33.40;70.70;;;;;;5095938;28;19923;-80
2022/06/20 09:43:47;;;;;;;;;;;33.40;70.50;;;;;;5095357;28;20056;-79
2022/06/20 09:46:17;;;;;;;;;;;33.40;71.00;;;;;;5094071;28;19923;-80
2022/06/20 09:48:49;;;;;;;;;;;33.10;70.80;;;;;;5092573;28;19924;-79
2022/06/20 09:51:19;;;;;;;;;;;33.20;71.70;;;;;;5093414;28;19920;-78
2022/06/20 09:54:06;;;;;;;;;;;33.40;71.90;;;;;;5093625;28;19931;-78
2022/06/20 09:56:52;;;;;;;;;;;33.60;71.90;;;;;;5075501;28;19924;-79
2022/06/20 09:59:28;;;;;;;;;;;33.80;70.70;;;;;;5109071;28;19967;-78
2022/06/20 10:01:56;;;;;;;;;;;33.60;69.20;;;;;;5109268;28;20042;-77
2022/06/20 10:04:52;;;;;;;;;;;33.50;69.80;;;;;;5093563;28;19924;-79
2022/06/20 10:07:46;;;;;;;;;;;33.60;70.50;;;;;;5085562;28;20344;-79
2022/06/20 10:10:14;;;;;;;;;;;33.50;70.30;;;;;;5093181;28;19932;-79
2022/06/20 10:12:47;;;;;;;;;;;33.20;70.20;;;;;;5093380;28;20036;-78
2022/06/20 10:15:20;;;;;;;;;;;33.20;70.20;;;;;;5091932;28;19920;-78
2022/06/20 10:17:47;;;;;;;;;;;33.10;70.30;;;;;;5093354;28;19969;-79
2022/06/20 10:20:21;;;;;;;;;;;33.30;70.60;;;;;;5091782;28;19930;-79
2022/06/20 10:22:51;;;;;;;;;;;33.40;70.10;;;;;;5091618;28;19924;-79
2022/06/20 10:25:38;;;;;;;;;;;33.30;69.90;;;;;;5091803;28;19978;-79
2022/06/20 10:28:15;;;;;;;;;;;33.40;70.00;;;;;;5093046;28;19931;-79
2022/06/20 10:30:54;;;;;;;;;;;33.50;69.20;;;;;;5091777;28;19946;-79
2022/06/20 10:33:30;;;;;;;;;;;33.30;69.60;;;;;;5089943;28;20022;-79
2022/06/20 10:36:17;;;;;;;;;;;32.90;69.90;;;;;;5112056;28;19926;-79
2022/06/20 10:38:54;;;;;;;;;;;32.40;72.70;;;;;;5110616;28;19923;-80
2022/06/20 10:41:44;;;;;;;;;;;31.90;73.80;;;;;;5094274;28;19926;-79
2022/06/20 10:44:19;;;;;;;;;;;31.60;74.70;;;;;;5110888;28;19919;-79
2022/06/20 10:46:57;;;;;;;;;;;31.50;74.80;;;;;;5111839;28;20337;-79
2022/06/20 10:49:25;;;;;;;;;;;31.20;75.10;;;;;;5111175;28;19924;-79
2022/06/20 10:52:04;;;;;;;;;;;30.90;75.80;;;;;;5093485;28;20484;-79
2022/06/20 10:54:45;;;;;;;;;;;30.90;76.70;;;;;;5110642;28;20117;-79
2022/06/20 10:57:25;;;;;;;;;;;30.80;76.30;;;;;;5111071;28;19923;-79
2022/06/20 10:59:55;;;;;;;;;;;30.80;76.60;;;;;;5110587;28;19926;-78
2022/06/20 11:02:25;;;;;;;;;;;30.40;77.40;;;;;;5094111;28;19923;-79
2022/06/20 11:05:03;;;;;;;;;;;30.40;77.90;;;;;;5111866;28;19981;-78
2022/06/20 11:07:49;;;;;;;;;;;30.30;77.80;;;;;;5111044;28;19984;-78
2022/06/20 11:10:22;;;;;;;;;;;30.20;77.80;;;;;;5110898;28;19920;-80
2022/06/20 11:13:06;;;;;;;;;;;30.10;77.60;;;;;;5110778;28;20004;-78
2022/06/20 11:15:49;;;;;;;;;;;30.10;77.50;;;;;;5110028;28;19930;-78
2022/06/20 11:18:27;;;;;;;;;;;30.10;77.40;;;;;;5093894;28;19973;-78
2022/06/20 11:21:10;;;;;;;;;;;30.20;77.60;;;;;;5109584;28;20323;-78
2022/06/20 11:23:47;;;;;;;;;;;30.10;77.60;;;;;;5110363;28;19930;-78
2022/06/20 11:26:53;;;;;;;;;;;30.00;77.80;;;;;;5077094;28;20423;-79
2022/06/20 11:29:30;;;;;;;;;;;29.90;78.70;;;;;;5048393;28;20436;-78
2022/06/20 11:32:15;;;;;;;;;;;30.00;78.80;;;;;;5015127;28;20759;-78
2022/06/20 11:35:01;;;;;;;;;;;29.80;78.70;;;;;;5083145;28;19924;-82
2022/06/20 11:37:38;;;;;;;;;;;29.70;78.70;;;;;;5093525;28;19954;-79
2022/06/20 11:40:09;;;;;;;;;;;29.80;79.00;;;;;;5110866;28;20381;-78
2022/06/20 11:42:56;;;;;;;;;;;30.00;78.80;;;;;;5110647;28;19927;-78
2022/06/20 11:45:41;;;;;;;;;;;30.10;78.30;;;;;;5112028;28;19919;-79
2022/06/20 11:48:24;;;;;;;;;;;30.10;78.30;;;;;;5110864;28;19976;-78
2022/06/20 11:51:15;;;;;;;;;;;30.10;78.00;;;;;;5093043;28;20443;-81
2022/06/20 11:54:01;;;;;;;;;;;30.10;78.10;;;;;;5100903;28;19923;-78
2022/06/20 11:56:32;;;;;;;;;;;30.10;78.10;;;;;;5110221;28;20296;-79
2022/06/20 11:59:30;;;;;;;;;;;30.10;77.70;;;;;;5111343;28;19953;-78
2022/06/20 12:02:18;;;;;;;;;;;30.20;77.50;;;;;;5095891;28;19968;-78
2022/06/20 12:05:19;;;;;;;;;;;30.30;77.30;;;;;;5110346;28;19973;-78
2022/06/20 12:07:59;;;;;;;;;;;30.30;76.80;;;;;;5094091;28;19924;-79
2022/06/20 12:10:34;;;;;;;;;;;30.40;76.70;;;;;;5110084;28;19993;-79
2022/06/20 12:13:01;;;;;;;;;;;30.40;76.70;;;;;;5108065;28;19979;-80
2022/06/20 12:15:40;;;;;;;;;;;30.50;76.90;;;;;;5109893;28;20286;-79
2022/06/20 12:18:29;;;;;;;;;;;30.50;77.00;;;;;;5092929;28;20396;-79
2022/06/20 12:23:47;;;;;;;;;;;30.40;76.90;;;;;;5110018;28;19931;-79
2022/06/20 12:26:17;;;;;;;;;;;30.30;77.10;;;;;;5093348;28;19938;-79
2022/06/20 12:28:47;;;;;;;;;;;30.40;77.30;;;;;;5111192;28;20306;-80
2022/06/20 12:31:15;;;;;;;;;;;30.30;77.20;;;;;;5113109;28;19962;-79
2022/06/20 12:33:48;;;;;;;;;;;30.10;77.50;;;;;;5115718;28;19919;-77
2022/06/20 12:36:35;;;;;;;;;;;30.00;77.50;;;;;;5114651;28;19969;-80
2022/06/20 12:39:08;;;;;;;;;;;29.90;78.20;;;;;;5114130;28;19919;-79
2022/06/20 12:41:41;;;;;;;;;;;29.80;77.70;;;;;;5115673;28;19919;-79
2022/06/20 12:44:15;;;;;;;;;;;29.90;78.20;;;;;;5096976;28;19974;-80
2022/06/20 12:46:42;;;;;;;;;;;29.90;78.60;;;;;;5080070;28;19924;-80
2022/06/20 12:49:21;;;;;;;;;;;29.90;78.80;;;;;;5114494;28;19924;-80
2022/06/20 12:51:58;;;;;;;;;;;30.00;78.80;;;;;;5097084;28;19980;-78
2022/06/20 12:54:41;;;;;;;;;;;30.00;78.10;;;;;;5114073;28;19923;-79
2022/06/20 12:57:17;;;;;;;;;;;29.90;78.30;;;;;;5113475;28;19919;-78
2022/06/20 12:59:51;;;;;;;;;;;29.80;78.40;;;;;;5114284;28;20365;-79
2022/06/20 13:02:28;;;;;;;;;;;29.80;77.80;;;;;;5113819;28;19934;-79
2022/06/20 13:05:20;;;;;;;;;;;29.80;77.40;;;;;;5111384;28;19930;-78
2022/06/20 13:07:53;;;;;;;;;;;29.80;77.70;;;;;;5106727;28;20057;-80
2022/06/20 13:10:24;;;;;;;;;;;29.90;77.50;;;;;;5113497;28;19920;-79
2022/06/20 13:12:52;;;;;;;;;;;30.00;77.00;;;;;;5113773;28;20357;-80
2022/06/20 13:15:22;;;;;;;;;;;30.20;77.50;;;;;;5113480;28;19973;-79
2022/06/20 13:18:05;;;;;;;;;;;30.20;77.40;;;;;;5114723;28;20255;-79
2022/06/20 13:20:37;;;;;;;;;;;30.10;77.80;;;;;;5114508;28;19924;-78
2022/06/20 13:23:11;;;;;;;;;;;30.00;77.80;;;;;;5114105;28;19935;-79
2022/06/20 13:25:47;;;;;;;;;;;30.10;78.00;;;;;;5114338;28;19927;-79
2022/06/20 13:28:14;;;;;;;;;;;30.00;78.10;;;;;;5112930;28;19931;-78
2022/06/20 13:30:57;;;;;;;;;;;30.00;78.00;;;;;;5113277;28;19934;-78
2022/06/20 13:33:43;;;;;;;;;;;30.00;78.30;;;;;;5096209;28;19980;-79
2022/06/20 13:36:19;;;;;;;;;;;30.00;78.00;;;;;;5113409;28;19950;-79
2022/06/20 13:38:52;;;;;;;;;;;30.10;77.90;;;;;;5096011;28;20440;-80
2022/06/20 13:41:23;;;;;;;;;;;30.20;77.80;;;;;;5113130;28;19955;-79
2022/06/20 13:44:04;;;;;;;;;;;30.30;77.70;;;;;;5112890;28;19920;-79
2022/06/20 13:46:50;;;;;;;;;;;30.40;77.70;;;;;;5096127;28;19927;-80
2022/06/20 13:49:17;;;;;;;;;;;30.40;77.60;;;;;;5113862;28;20018;-78
2022/06/20 13:51:49;;;;;;;;;;;30.50;77.20;;;;;;5112742;28;19920;-79
2022/06/20 13:54:33;;;;;;;;;;;30.50;77.30;;;;;;5114013;28;19930;-80
2022/06/20 13:57:12;;;;;;;;;;;30.40;77.30;;;;;;5097736;28;19920;-78
2022/06/20 13:59:46;;;;;;;;;;;30.40;77.60;;;;;;5108939;28;19931;-80
2022/06/20 14:02:31;;;;;;;;;;;30.30;77.30;;;;;;5092674;28;19931;-79
2022/06/20 14:05:14;;;;;;;;;;;30.40;77.60;;;;;;5075355;28;20297;-78
2022/06/20 14:07:43;;;;;;;;;;;30.40;77.70;;;;;;5091920;28;20389;-78
2022/06/20 14:10:23;;;;;;;;;;;30.40;77.80;;;;;;5092303;28;19935;-80
2022/06/20 14:12:52;;;;;;;;;;;30.30;77.50;;;;;;5092819;28;20293;-80
2022/06/20 14:15:30;;;;;;;;;;;30.30;77.80;;;;;;5108535;28;19920;-79
2022/06/20 14:17:59;;;;;;;;;;;30.10;78.20;;;;;;5058770;28;19920;-79
2022/06/20 14:20:29;;;;;;;;;;;30.00;78.30;;;;;;5108559;28;19977;-78
2022/06/20 14:22:58;;;;;;;;;;;30.00;78.30;;;;;;5075010;28;19924;-79
2022/06/20 14:25:38;;;;;;;;;;;30.00;78.20;;;;;;5091425;28;19931;-78
2022/06/20 14:28:18;;;;;;;;;;;30.00;78.20;;;;;;5091351;28;19924;-80
2022/06/20 14:30:51;;;;;;;;;;;30.10;78.10;;;;;;5092970;28;19931;-79
2022/06/20 14:33:30;;;;;;;;;;;30.00;78.10;;;;;;5091710;28;20068;-79
2022/06/20 14:36:09;;;;;;;;;;;29.80;78.20;;;;;;5091290;28;19930;-78
2022/06/20 14:38:45;;;;;;;;;;;29.90;78.40;;;;;;5091197;28;19958;-80
2022/06/20 14:44:08;;;;;;;;;;;29.80;77.80;;;;;;5110759;28;19930;-78
2022/06/20 14:46:42;;;;;;;;;;;29.80;77.90;;;;;;5094733;28;20311;-78
2022/06/20 14:49:14;;;;;;;;;;;29.80;77.90;;;;;;5112321;28;20515;-79
2022/06/20 14:51:44;;;;;;;;;;;29.90;77.80;;;;;;5112617;28;19928;-79
2022/06/20 14:54:18;;;;;;;;;;;29.80;77.70;;;;;;5112187;28;19928;-79
2022/06/20 14:56:45;;;;;;;;;;;30.00;77.60;;;;;;5094405;28;19920;-79
2022/06/20 14:59:33;;;;;;;;;;;30.00;77.30;;;;;;5112696;28;19981;-79
2022/06/20 15:02:10;;;;;;;;;;;30.00;77.20;;;;;;5112108;28;19923;-78
2022/06/20 15:04:40;;;;;;;;;;;30.00;77.00;;;;;;5112657;28;19965;-78
2022/06/20 15:07:29;;;;;;;;;;;29.90;77.00;;;;;;5111657;28;19971;-78
2022/06/20 15:10:08;;;;;;;;;;;29.90;77.10;;;;;;5093846;28;19919;-78
2022/06/20 15:12:42;;;;;;;;;;;29.90;77.00;;;;;;5077556;28;19927;-78
2022/06/20 15:15:24;;;;;;;;;;;30.00;77.10;;;;;;5112343;28;19972;-80
2022/06/20 15:18:01;;;;;;;;;;;30.00;76.70;;;;;;5111248;28;19924;-79
2022/06/20 15:20:31;;;;;;;;;;;29.90;76.30;;;;;;5110946;28;19924;-79
2022/06/20 15:23:05;;;;;;;;;;;30.00;76.10;;;;;;5112001;28;19928;-80
2022/06/20 15:25:37;;;;;;;;;;;30.00;76.40;;;;;;5094102;28;19969;-80
2022/06/20 15:28:28;;;;;;;;;;;30.10;75.90;;;;;;5111301;28;19924;-81
2022/06/20 15:31:01;;;;;;;;;;;30.00;76.00;;;;;;5101481;28;19951;-80
2022/06/20 15:33:48;;;;;;;;;;;29.90;76.20;;;;;;5109384;28;20358;-81
2022/06/20 15:36:16;;;;;;;;;;;29.80;76.40;;;;;;5110621;28;20422;-80
2022/06/20 15:38:49;;;;;;;;;;;29.70;76.90;;;;;;5112597;28;20369;-80